• Join FlightAware (Why Join?)
  • Login
  • US Flag 
09:00AM EST


 

Airport Tracker/Info


-or-


 

Live Flight TrackerFlight Track Log ✈ SWA1046 ✈ 29-Apr-2013 ✈ KMCO - KSTL

Flight Track Log - Related Links

Times and Time Zones

All times are in EDT time to prevent confusion due to time zone crossing. See the SWA1046 flight status page for this flight to view local times or setup timezone preferences in your user account.

Time Position Orientation Groundspeed Altitude Reporting Facility
EDT Latitude Longitude Course Direction KTS MPH feet Rate Location/Type
11:16AM 28.3833 -81.3000 180° South 179 206 1,800  Level Orlando TRACON
11:17AM 28.3333 -81.3500 221° Southwest 219 252 4,600 2,880 Climbing Orlando TRACON
11:18AM 28.3333 -81.4167 270° West 233 268 7,900 3,420 Climbing Orlando TRACON
11:19AM 28.3167 -81.5000 257° West 235 270 11,600 3,300 Climbing Orlando TRACON
11:20AM 28.3167 -81.5667 270° West 248 285 14,600 2,160 Climbing Orlando TRACON
11:21AM 28.3167 -81.6667 270° West 315 362 16,000 840 Climbing Orlando TRACON
11:23AM 28.3061 -81.8269 266° West 357 411 16,900 1,440 Climbing Jacksonville Center
11:24AM 28.3008 -81.9472 267° West 368 423 19,800 2,520 Climbing Jacksonville Center
11:25AM 28.2975 -82.0675 268° West 381 438 22,100 2,400 Climbing Jacksonville Center
11:26AM 28.3067 -82.1925 275° West 388 447 24,600 2,400 Climbing Jacksonville Center
11:27AM 28.4050 -82.2672 326° Northwest 369 425 27,000 1,980 Climbing Jacksonville Center
11:28AM 28.5056 -82.3422 327° Northwest 390 449 28,600 1,500 Climbing Jacksonville Center
11:29AM 28.6103 -82.4150 329° Northwest 421 484 30,000 1,680 Climbing Jacksonville Center
11:30AM 28.7253 -82.5019 326° Northwest 436 502 32,000 960 Climbing Jacksonville Center
11:31AM 28.8319 -82.5797 327° Northwest 448 516 32,000 540 Level Jacksonville Center
11:32AM 28.9364 -82.6600 326° Northwest 454 522 33,100 1,680 Climbing Jacksonville Center
11:33AM 29.0389 -82.7333 328° Northwest 454 522 35,400 2,100 Climbing Jacksonville Center
11:34AM 29.1392 -82.8094 326° Northwest 441 507 37,300 1,260 Climbing Jacksonville Center
11:35AM 29.2353 -82.8831 326° Northwest 430 495 38,000 300 Climbing Jacksonville Center
11:36AM 29.3311 -82.9544 327° Northwest 420 483 38,000  Level Jacksonville Center
11:37AM 29.4292 -83.0286 327° Northwest 420 483 38,000  Level Jacksonville Center
11:38AM 29.5336 -83.1075 327° Northwest 426 490 38,000  Level Jacksonville Center
11:39AM 29.6336 -83.1842 326° Northwest 431 496 38,000  Level Jacksonville Center
11:40AM 29.7211 -83.2536 325° Northwest 436 502 38,000  Level Jacksonville Center
11:41AM 29.8211 -83.3283 327° Northwest 436 502 38,000 480 Level Jacksonville Center
11:42AM 29.9211 -83.4031 327° Northwest 436 502 39,000 960 Climbing Jacksonville Center
11:43AM 30.0208 -83.4781 327° Northwest 431 496 40,000 480 Climbing Jacksonville Center
11:44AM 30.1167 -83.5506 327° Northwest 426 490 40,000  Level Jacksonville Center
11:45AM 30.2164 -83.6281 326° Northwest 426 490 40,000  Level Jacksonville Center
11:46AM 30.3119 -83.7011 327° Northwest 420 483 40,000  Level Jacksonville Center
11:47AM 30.4117 -83.7742 328° Northwest 420 483 40,000  Level Jacksonville Center
11:48AM 30.5050 -83.8497 325° Northwest 420 483 40,000  Level Jacksonville Center
11:49AM 30.6067 -83.9303 326° Northwest 415 478 40,000  Level Jacksonville Center
11:50AM 30.7022 -84.0039 326° Northwest 415 478 40,000  Level Jacksonville Center
11:51AM 30.7997 -84.0778 327° Northwest 415 478 40,000  Level Jacksonville Center
11:52AM 30.8825 -84.1464 325° Northwest 415 478 40,000  Level Jacksonville Center
11:53AM 30.9800 -84.2206 327° Northwest 420 483 40,000  Level Jacksonville Center
11:54AM 31.0772 -84.2969 326° Northwest 420 483 40,000  Level Jacksonville Center
11:55AM 31.1725 -84.3736 325° Northwest 420 483 40,000  Level Jacksonville Center
11:56AM 31.2717 -84.4481 327° Northwest 420 483 40,000  Level Jacksonville Center
11:58AM 31.5011 -84.6331 326° Northwest 421 484 40,000  Level Atlanta Center
11:59AM 31.6008 -84.7119 326° Northwest 426 490 40,000  Level Atlanta Center
12:00PM 31.6983 -84.7906 326° Northwest 426 490 40,000  Level Atlanta Center
12:01PM 31.7878 -84.8622 326° Northwest 426 490 40,000  Level Atlanta Center
12:02PM 31.8853 -84.9414 325° Northwest 426 490 40,000  Level Atlanta Center
12:03PM 31.9869 -85.0208 326° Northwest 426 490 40,000  Level Atlanta Center
12:04PM 32.0886 -85.1003 327° Northwest 426 490 40,000  Level Atlanta Center
12:05PM 32.1964 -85.1850 326° Northwest 426 490 40,000  Level Atlanta Center
12:06PM 32.2978 -85.2650 326° Northwest 426 490 40,000  Level Atlanta Center
12:07PM 32.4014 -85.3500 325° Northwest 441 507 40,000  Level Atlanta Center
12:08PM 32.5028 -85.4303 326° Northwest 441 507 40,000  Level Atlanta Center
12:09PM 32.5997 -85.5158 323° Northwest 441 507 40,000  Level Atlanta Center
12:10PM 32.7011 -85.5964 326° Northwest 446 513 40,000  Level Atlanta Center
12:11PM 32.8003 -85.6772 326° Northwest 446 513 40,000  Level Atlanta Center
12:12PM 32.8972 -85.7558 326° Northwest 446 513 40,000  Level Atlanta Center
12:13PM 32.9964 -85.8394 325° Northwest 440 506 40,000  Level Atlanta Center
12:14PM 33.0892 -85.9133 326° Northwest 445 512 40,000  Level Atlanta Center
12:15PM 33.1839 -85.9947 324° Northwest 435 501 40,000  Level Atlanta Center
12:16PM 33.2850 -86.0739 327° Northwest 440 506 40,000  Level Atlanta Center
12:17PM 33.3836 -86.1583 324° Northwest 445 512 40,000  Level Atlanta Center
12:18PM 33.4844 -86.2456 324° Northwest 445 512 40,000  Level Atlanta Center
12:19PM 33.5933 -86.3381 325° Northwest 445 512 40,000  Level Atlanta Center
12:20PM 33.6939 -86.4233 325° Northwest 445 512 40,000  Level Atlanta Center
12:21PM 33.7944 -86.5086 325° Northwest 445 512 40,000  Level Atlanta Center
12:22PM 33.8950 -86.5939 325° Northwest 445 512 40,000  Level Atlanta Center
12:23PM 33.9978 -86.6772 326° Northwest 445 512 40,000  Level Atlanta Center
12:24PM 34.0981 -86.7656 324° Northwest 445 512 40,000  Level Atlanta Center
12:25PM 34.1619 -86.8228 323° Northwest 453 521 40,000  Level Memphis Center
12:26PM 34.2519 -86.9019 324° Northwest 458 527 40,000  Level Memphis Center
12:27PM 34.3522 -86.9886 324° Northwest 458 527 40,000  Level Memphis Center
12:28PM 34.4483 -87.0728 324° Northwest 440 506 40,000  Level Memphis Center
12:29PM 34.5531 -87.1672 323° Northwest 434 499 40,000  Level Memphis Center
12:30PM 34.6489 -87.2444 326° Northwest 434 499 40,000  Level Memphis Center
12:31PM 34.7472 -87.3317 324° Northwest 434 499 40,000  Level Memphis Center
12:32PM 34.8453 -87.4169 324° Northwest 434 499 40,000  Level Memphis Center
12:33PM 34.9411 -87.4997 325° Northwest 434 499 40,000  Level Memphis Center
12:34PM 35.0389 -87.5850 324° Northwest 439 505 40,000  Level Memphis Center
12:35PM 35.1281 -87.6608 325° Northwest 439 505 40,000  Level Memphis Center
12:36PM 35.2239 -87.7467 324° Northwest 439 505 40,000  Level Memphis Center
12:37PM 35.3217 -87.8325 324° Northwest 439 505 40,000  Level Memphis Center
12:38PM 35.4194 -87.9214 323° Northwest 444 511 40,000  Level Memphis Center
12:39PM 35.5192 -88.0103 324° Northwest 444 511 40,000  Level Memphis Center
12:40PM 35.6167 -88.0969 324° Northwest 437 503 40,000  Level Memphis Center
12:41PM 35.7139 -88.1786 326° Northwest 442 509 40,000  Level Memphis Center
12:42PM 35.8092 -88.2606 325° Northwest 432 497 40,000  Level Memphis Center
12:43PM 35.9025 -88.3478 323° Northwest 426 490 40,000  Level Memphis Center
12:44PM 35.9978 -88.4328 324° Northwest 420 483 40,000  Level Memphis Center
12:45PM 36.0928 -88.5206 323° Northwest 415 478 40,000  Level Memphis Center
12:46PM 36.1878 -88.6083 323° Northwest 420 483 40,000 -360 Level Memphis Center
12:47PM 36.2828 -88.6886 326° Northwest 415 478 39,300 -900 Descending Memphis Center
12:48PM 36.3942 -88.7431 339° North 415 478 38,300 -960 Descending Memphis Center
12:49PM 36.5031 -88.7950 339° North 415 478 37,400 -900 Descending Memphis Center
12:50PM 36.6164 -88.8497 339° North 421 484 36,600 -900 Descending Memphis Center
12:51PM 36.7275 -88.9019 339° North 426 490 35,600 -840 Descending Memphis Center
12:52PM 36.8386 -88.9569 338° Northwest 426 490 35,000 -240 Descending Memphis Center
12:54PM 36.9833 -89.1736 310° West 422 486 34,900 -960 Descending Kansas City Center
12:55PM 37.0525 -89.2850 308° West 412 474 32,200 -2,880 Descending Kansas City Center
12:56PM 37.1367 -89.4214 308° West 413 475 29,000 -2,760 Descending Kansas City Center
12:57PM 37.2031 -89.5356 306° West 410 472 26,600 -1,500 Descending Kansas City Center
12:58PM 37.2919 -89.6083 327° Northwest 393 452 26,000 -300 Descending Kansas City Center
12:59PM 37.3944 -89.6644 336° Northwest 397 457 26,000  Level Kansas City Center
01:00PM 37.4950 -89.7197 336° Northwest 396 456 26,000  Level Kansas City Center
01:01PM 37.6056 -89.7806 336° Northwest 395 455 26,000  Level Kansas City Center
01:02PM 37.7072 -89.8353 337° Northwest 397 457 26,000 -480 Level Kansas City Center
01:03PM 37.8069 -89.8906 336° Northwest 395 455 25,100 -1,680 Descending Kansas City Center
01:04PM 37.9217 -89.9522 337° Northwest 385 443 22,600 -2,280 Descending Kansas City Center
01:05PM 38.0217 -90.0067 337° Northwest 367 422 20,400 -2,040 Descending Kansas City Center
01:06PM 38.1114 -90.0589 335° Northwest 356 410 18,400 -1,980 Descending Kansas City Center
01:07PM 38.1994 -90.1078 336° Northwest 346 398 16,400 -2,040 Descending Kansas City Center
01:08PM 38.2919 -90.1597 336° Northwest 338 389 14,300 -1,980 Descending Kansas City Center
01:09PM 38.3753 -90.2067 336° Northwest 329 379 12,400 -1,800 Descending Kansas City Center
01:10PM 38.4628 -90.2553 336° Northwest 324 373 10,600 -1,260 Descending Kansas City Center
01:11PM 38.5389 -90.2983 336° Northwest 316 364 9,900 -1,020 Descending Kansas City Center
01:12PM 38.6072 -90.3367 336° Northwest 301 346 8,600 -1,080 Descending Kansas City Center
01:13PM 38.6594 -90.3850 324° Northwest 279 321 7,700 -1,080 Descending Kansas City Center
01:15PM 38.6942 -90.4575 302° West 240 276 6,400 -1,320 Descending Kansas City Center
01:16PM 38.7317 -90.5333 302° West 244 281 5,000 -780 Descending Kansas City Center
01:17PM 38.7653 -90.5986 303° West 223 257 4,900 -540 Descending Kansas City Center
01:18PM 38.8122 -90.5864 11° North 207 238 3,900 -1,020 Descending Kansas City Center
01:19PM 38.8056 -90.5175 97° East 199 229 2,800 -960 Descending Kansas City Center
01:20PM 38.7931 -90.4583 105° East 179 206 2,000 -840 Descending Kansas City Center
01:21PM 38.7675 -90.4069 123° Southeast 152 175 1,100 -780 Descending Kansas City Center
01:22PM 38.7517 -90.3736 121° Southeast 143 165 500 -600 Descending Kansas City Center